createdAt,value
2023-02-16T00:02:39.577Z,99.90
2023-02-16T00:05:44.409Z,99.90
2023-02-16T00:08:49.184Z,99.90
2023-02-16T00:12:07.794Z,99.90
2023-02-16T00:15:19.428Z,99.90
2023-02-16T00:18:24.116Z,99.90
2023-02-16T00:21:28.690Z,99.90
2023-02-16T00:24:32.618Z,99.90
2023-02-16T00:27:36.363Z,99.90
2023-02-16T00:30:40.597Z,99.90
2023-02-16T00:33:43.789Z,99.90
2023-02-16T00:36:48.341Z,99.90
2023-02-16T00:39:51.549Z,99.90
2023-02-16T00:42:57.233Z,99.90
2023-02-16T00:46:00.893Z,99.90
2023-02-16T00:49:04.098Z,99.90
2023-02-16T00:52:35.907Z,99.90
2023-02-16T00:55:40.487Z,99.90
2023-02-16T00:58:43.741Z,99.90
2023-02-16T01:01:47.181Z,99.90
2023-02-16T01:04:50.642Z,99.90
2023-02-16T01:08:12.545Z,99.90
2023-02-16T01:11:15.785Z,99.90
2023-02-16T01:14:18.992Z,99.90
2023-02-16T01:17:22.822Z,99.90
2023-02-16T01:20:27.519Z,99.90
2023-02-16T01:23:32.082Z,99.90
2023-02-16T01:26:40.700Z,99.90
2023-02-16T01:29:43.954Z,99.90
2023-02-16T01:32:51.552Z,99.90
2023-02-16T01:35:56.123Z,99.90
2023-02-16T01:39:00.776Z,99.90
2023-02-16T01:42:12.060Z,99.90
2023-02-16T01:45:19.468Z,99.90
2023-02-16T01:48:27.059Z,99.90
2023-02-16T01:51:35.598Z,99.90
2023-02-16T01:54:45.480Z,99.90
2023-02-16T01:57:52.378Z,99.90
2023-02-16T02:01:40.871Z,99.90
2023-02-16T02:05:05.581Z,99.90
2023-02-16T02:08:18.662Z,99.90
2023-02-16T02:11:28.820Z,99.90
2023-02-16T02:14:39.294Z,99.90
2023-02-16T02:17:42.602Z,99.90
2023-02-16T02:21:40.229Z,99.90
2023-02-16T02:25:09.617Z,99.90
2023-02-16T02:28:18.067Z,99.90
2023-02-16T02:31:37.860Z,99.90
2023-02-16T02:34:59.901Z,99.90
2023-02-16T02:38:10.702Z,99.90
2023-02-16T02:41:22.432Z,99.90
2023-02-16T02:44:30.303Z,99.90
2023-02-16T02:47:42.263Z,99.90
2023-02-16T02:51:07.652Z,99.90
2023-02-16T02:54:34.292Z,99.90
2023-02-16T02:58:01.797Z,99.90
2023-02-16T03:01:07.631Z,99.90
2023-02-16T03:04:13.989Z,99.90
2023-02-16T03:07:18.307Z,99.90
2023-02-16T03:10:41.845Z,99.90
2023-02-16T03:13:48.595Z,99.90
2023-02-16T03:17:14.105Z,99.90
2023-02-16T03:20:35.261Z,99.90
2023-02-16T03:23:58.588Z,99.90
2023-02-16T03:27:20.083Z,99.90
2023-02-16T03:30:27.664Z,99.90
2023-02-16T03:33:33.143Z,99.90
2023-02-16T03:36:38.176Z,99.90
2023-02-16T03:39:55.414Z,99.90
2023-02-16T03:43:01.257Z,99.90
2023-02-16T03:46:04.595Z,99.90
2023-02-16T03:49:09.266Z,99.90
2023-02-16T03:52:12.479Z,99.90
2023-02-16T03:55:16.197Z,99.90
2023-02-16T03:58:20.848Z,99.90
2023-02-16T04:01:24.175Z,99.90
2023-02-16T04:04:28.729Z,99.90
2023-02-16T04:07:32.003Z,99.90
2023-02-16T04:10:35.577Z,99.90
2023-02-16T04:13:37.723Z,99.90
2023-02-16T04:16:40.906Z,99.90
2023-02-16T04:19:45.507Z,99.90
2023-02-16T04:22:49.689Z,99.90
2023-02-16T04:25:52.937Z,99.90
2023-02-16T04:28:56.080Z,99.90
2023-02-16T04:31:59.780Z,99.90
2023-02-16T04:35:04.436Z,99.90
2023-02-16T04:38:07.699Z,99.90
2023-02-16T04:41:10.886Z,99.90
2023-02-16T04:44:14.194Z,99.90
2023-02-16T04:47:17.577Z,99.90
2023-02-16T04:50:22.254Z,99.90
2023-02-16T04:53:25.354Z,99.90
2023-02-16T04:56:29.267Z,99.90
2023-02-16T04:59:32.581Z,99.90
2023-02-16T05:02:35.858Z,99.90
2023-02-16T05:05:41.563Z,99.90
2023-02-16T05:08:45.023Z,99.90
2023-02-16T05:12:05.613Z,99.90
2023-02-16T05:15:08.959Z,99.90
2023-02-16T05:18:12.344Z,99.90
2023-02-16T05:21:31.781Z,99.90
2023-02-16T05:27:58.258Z,99.90
2023-02-16T05:31:11.369Z,99.90
2023-02-16T05:34:55.351Z,99.90
2023-02-16T05:38:02.917Z,99.90
2023-02-16T05:41:06.350Z,99.90
2023-02-16T05:44:10.308Z,99.90
2023-02-16T05:47:13.603Z,99.90
2023-02-16T05:50:18.295Z,99.90
2023-02-16T05:53:22.966Z,99.90
2023-02-16T05:56:27.617Z,99.90
2023-02-16T05:59:30.869Z,99.90
2023-02-16T06:02:34.107Z,99.90
2023-02-16T06:05:40.178Z,99.90
2023-02-16T06:08:44.910Z,99.90
2023-02-16T06:11:48.308Z,99.90
2023-02-16T06:14:51.504Z,99.90
2023-02-16T06:17:54.678Z,99.90
2023-02-16T06:20:58.873Z,99.90
2023-02-16T06:24:03.771Z,99.90
2023-02-16T06:27:07.022Z,99.90
2023-02-16T06:30:12.331Z,99.90
2023-02-16T06:33:17.666Z,99.90
2023-02-16T06:36:21.468Z,99.90
2023-02-16T06:39:26.047Z,99.90
2023-02-16T06:42:29.199Z,99.90
2023-02-16T06:45:32.418Z,99.90
2023-02-16T06:48:35.582Z,99.90
2023-02-16T06:51:38.773Z,99.90
2023-02-16T06:54:43.471Z,99.90
2023-02-16T06:57:46.623Z,99.90
2023-02-16T07:00:50.061Z,99.90
2023-02-16T07:03:55.108Z,99.90
2023-02-16T07:06:58.289Z,99.90
2023-02-16T07:10:03.460Z,99.90
2023-02-16T07:13:06.623Z,99.90
2023-02-16T07:16:10.280Z,99.90
2023-02-16T07:19:13.520Z,99.90
2023-02-16T07:22:17.565Z,99.90
2023-02-16T07:25:25.162Z,99.90
2023-02-16T07:28:28.737Z,99.90
2023-02-16T07:31:32.352Z,99.90
2023-02-16T07:34:35.625Z,99.90
2023-02-16T07:37:38.969Z,99.90
2023-02-16T07:40:43.631Z,99.90
2023-02-16T07:43:47.556Z,99.90
2023-02-16T07:46:50.807Z,99.90
2023-02-16T07:49:54.199Z,99.90
2023-02-16T07:52:57.392Z,99.90
2023-02-16T07:56:02.040Z,99.90
2023-02-16T07:59:05.532Z,99.90
2023-02-16T08:02:08.985Z,99.90
2023-02-16T08:05:12.348Z,99.90
2023-02-16T08:08:15.600Z,99.90
2023-02-16T08:11:22.251Z,99.90
2023-02-16T08:14:25.654Z,99.90
2023-02-16T08:17:28.996Z,99.90
2023-02-16T08:20:51.164Z,99.90
2023-02-16T08:23:57.704Z,99.90
2023-02-16T08:27:03.834Z,99.90
2023-02-16T08:30:12.751Z,99.90
2023-02-16T08:33:16.072Z,99.90
2023-02-16T08:36:20.489Z,99.90
2023-02-16T08:39:25.938Z,99.90
2023-02-16T08:42:30.492Z,99.90
2023-02-16T08:45:33.712Z,99.90
2023-02-16T08:48:36.937Z,99.90
2023-02-16T08:51:43.748Z,99.90
2023-02-16T08:54:46.947Z,99.90
2023-02-16T08:57:51.670Z,99.90
2023-02-16T09:00:54.986Z,99.90
2023-02-16T09:03:59.001Z,99.90
2023-02-16T09:07:02.467Z,99.90
2023-02-16T09:10:06.760Z,99.90
2023-02-16T09:13:14.938Z,99.90
2023-02-16T09:16:21.255Z,99.90
2023-02-16T09:19:24.595Z,99.90
2023-02-16T09:22:27.950Z,99.90
2023-02-16T09:25:31.371Z,99.90
2023-02-16T09:28:36.275Z,98.60
2023-02-16T09:31:40.041Z,96.80
2023-02-16T09:34:44.621Z,95.90
2023-02-16T09:37:47.823Z,90.30
2023-02-16T09:40:53.149Z,89.70
2023-02-16T09:44:01.102Z,85.20
2023-02-16T09:47:11.235Z,82.70
2023-02-16T09:50:27.814Z,85.40
2023-02-16T09:53:45.109Z,75.00
2023-02-16T09:56:55.234Z,74.50
2023-02-16T10:00:08.393Z,75.30
2023-02-16T10:03:32.023Z,68.50
2023-02-16T10:06:52.646Z,64.30
2023-02-16T10:09:57.243Z,63.60
2023-02-16T10:13:06.058Z,67.30
2023-02-16T10:16:17.170Z,67.20
2023-02-16T10:19:23.935Z,62.30
2023-02-16T10:22:34.120Z,61.60
2023-02-16T10:25:45.038Z,59.20
2023-02-16T10:28:50.387Z,52.30
2023-02-16T10:32:04.907Z,49.70
2023-02-16T10:35:20.457Z,33.80
2023-02-16T10:38:32.003Z,25.60
2023-02-16T10:41:39.830Z,22.10
2023-02-16T10:44:47.985Z,15.20
2023-02-16T10:47:52.592Z,10.80
2023-02-16T10:51:00.226Z,1.00
2023-02-16T10:54:06.917Z,1.00
2023-02-16T10:57:23.428Z,1.00
2023-02-16T11:00:40.125Z,1.00
2023-02-16T11:03:49.635Z,1.00
2023-02-16T11:07:05.047Z,1.00
2023-02-16T11:10:21.327Z,1.00
2023-02-16T11:13:32.451Z,1.00
2023-02-16T11:16:35.910Z,1.00
2023-02-16T11:19:42.706Z,1.00
2023-02-16T11:22:45.960Z,1.00
2023-02-16T11:25:58.245Z,1.00
2023-02-16T11:29:18.354Z,1.00
2023-02-16T11:32:22.617Z,1.00
2023-02-16T11:35:27.650Z,1.00
2023-02-16T11:38:33.764Z,1.00
2023-02-16T11:41:37.386Z,1.00
2023-02-16T11:44:44.502Z,1.00
2023-02-16T11:47:54.823Z,1.00
2023-02-16T11:51:00.337Z,1.00
2023-02-16T11:54:06.357Z,1.00
2023-02-16T11:57:15.673Z,1.00
2023-02-16T12:00:21.966Z,1.00
2023-02-16T12:03:43.964Z,1.00
2023-02-16T12:07:04.576Z,1.00
2023-02-16T12:10:11.287Z,1.00
2023-02-16T12:13:23.449Z,1.00
2023-02-16T12:16:34.045Z,1.00
2023-02-16T12:19:42.087Z,1.00
2023-02-16T12:22:49.877Z,1.00
2023-02-16T12:26:05.616Z,1.00
2023-02-16T12:29:23.987Z,1.00
2023-02-16T12:32:44.314Z,1.00
2023-02-16T12:35:51.972Z,1.00
2023-02-16T12:39:04.843Z,1.00
2023-02-16T12:42:24.414Z,1.00
2023-02-16T12:45:32.047Z,1.00
2023-02-16T12:48:42.638Z,1.00
2023-02-16T12:51:51.455Z,1.00
2023-02-16T12:55:00.683Z,1.00
2023-02-16T12:58:11.021Z,1.00
2023-02-16T13:01:16.041Z,1.00
2023-02-16T13:04:25.770Z,1.00
2023-02-16T13:07:33.969Z,1.00
2023-02-16T13:10:48.266Z,1.00
2023-02-16T13:13:54.494Z,1.00
2023-02-16T13:17:02.080Z,1.00
2023-02-16T13:20:13.039Z,1.00
2023-02-16T13:23:49.842Z,1.00
2023-02-16T13:27:11.962Z,1.00
2023-02-16T13:30:58.507Z,1.00
2023-02-16T13:34:29.603Z,1.00
2023-02-16T13:37:51.449Z,1.20
2023-02-16T13:41:20.975Z,1.00
2023-02-16T13:44:29.445Z,1.00
2023-02-16T13:47:38.418Z,4.70
2023-02-16T13:50:41.896Z,7.30
2023-02-16T13:53:52.617Z,10.10
2023-02-16T13:56:56.200Z,9.40
2023-02-16T14:00:07.453Z,11.50
2023-02-16T14:03:38.777Z,14.90
2023-02-16T14:06:42.976Z,19.30
2023-02-16T14:09:49.983Z,15.10
2023-02-16T14:12:53.559Z,8.50
2023-02-16T14:16:01.352Z,6.60
2023-02-16T14:19:19.483Z,5.90
2023-02-16T14:22:24.887Z,2.40
2023-02-16T14:25:40.432Z,15.50
2023-02-16T14:29:13.753Z,24.40
2023-02-16T14:32:26.340Z,28.40
2023-02-16T14:35:33.992Z,31.30
2023-02-16T14:38:39.103Z,37.80
2023-02-16T14:41:42.938Z,42.20
2023-02-16T14:45:03.819Z,45.00
2023-02-16T14:48:21.933Z,48.20
2023-02-16T14:51:58.088Z,50.10
2023-02-16T14:55:35.013Z,54.40
2023-02-16T14:58:48.750Z,58.40
2023-02-16T15:01:52.121Z,61.80
2023-02-16T15:04:58.212Z,66.20
2023-02-16T15:08:10.237Z,66.60
2023-02-16T15:11:23.229Z,70.30
2023-02-16T15:14:28.019Z,72.80
2023-02-16T15:17:35.628Z,75.80
2023-02-16T15:20:41.207Z,79.80
2023-02-16T15:23:55.464Z,84.60
2023-02-16T15:27:01.885Z,89.40
2023-02-16T15:30:09.585Z,92.20
2023-02-16T15:33:28.417Z,94.30
2023-02-16T15:36:39.589Z,96.50
2023-02-16T15:39:52.057Z,98.80
2023-02-16T15:43:40.030Z,99.90
2023-02-16T15:46:45.764Z,99.90
2023-02-16T15:49:54.181Z,99.90
2023-02-16T15:53:00.496Z,99.90
2023-02-16T15:56:07.137Z,99.90
2023-02-16T15:59:31.491Z,99.90
2023-02-16T16:02:39.282Z,99.90
2023-02-16T16:05:43.741Z,99.90
2023-02-16T16:08:49.087Z,99.90
2023-02-16T16:11:54.438Z,99.90
2023-02-16T16:15:01.593Z,99.90
2023-02-16T16:18:07.017Z,99.90
2023-02-16T16:21:17.082Z,99.90
2023-02-16T16:24:38.817Z,99.90
2023-02-16T16:27:49.196Z,99.90
2023-02-16T16:31:08.443Z,99.90
2023-02-16T16:34:32.617Z,99.90
2023-02-16T16:37:38.381Z,99.90
2023-02-16T16:40:45.565Z,99.90
2023-02-16T16:43:56.780Z,99.90
2023-02-16T16:47:13.643Z,99.90
2023-02-16T16:50:33.762Z,99.90
2023-02-16T16:53:51.653Z,99.90
2023-02-16T16:56:56.377Z,99.90
2023-02-16T17:00:00.243Z,99.90
2023-02-16T17:03:05.944Z,99.90
2023-02-16T17:06:09.761Z,99.90
2023-02-16T17:09:15.834Z,99.90
2023-02-16T17:12:22.226Z,99.90
2023-02-16T17:15:44.392Z,99.90
2023-02-16T17:18:48.338Z,99.90
2023-02-16T17:21:52.368Z,99.90
2023-02-16T17:24:56.184Z,99.90
2023-02-16T17:28:03.404Z,99.90
2023-02-16T17:31:07.836Z,99.90
2023-02-16T17:34:11.184Z,99.90
2023-02-16T17:37:14.940Z,99.90
2023-02-16T17:40:21.862Z,99.90
2023-02-16T17:43:28.463Z,99.90
2023-02-16T17:46:34.264Z,99.90
2023-02-16T17:49:37.738Z,99.90
2023-02-16T17:52:42.020Z,99.90
2023-02-16T17:55:49.267Z,99.90
2023-02-16T17:58:54.312Z,99.90
2023-02-16T18:01:58.308Z,99.90
2023-02-16T18:05:02.352Z,99.90
2023-02-16T18:08:06.997Z,99.90
2023-02-16T18:11:10.425Z,99.90
2023-02-16T18:14:15.303Z,99.90
2023-02-16T18:17:18.810Z,99.90
2023-02-16T18:20:22.602Z,99.90
2023-02-16T18:23:25.914Z,99.90
2023-02-16T18:26:33.279Z,99.90
2023-02-16T18:29:59.762Z,99.90
2023-02-16T18:33:03.513Z,99.90
2023-02-16T18:36:07.746Z,99.90
2023-02-16T18:39:12.221Z,99.90
2023-02-16T18:42:15.860Z,99.90
2023-02-16T18:45:21.175Z,99.90
2023-02-16T18:48:25.204Z,99.90
2023-02-16T18:51:32.112Z,99.90
2023-02-16T18:54:35.656Z,99.90
2023-02-16T18:57:39.340Z,99.90
2023-02-16T19:00:45.033Z,99.90
2023-02-16T19:03:48.546Z,99.90
2023-02-16T19:06:52.050Z,99.90
2023-02-16T19:09:55.319Z,99.90
2023-02-16T19:13:01.168Z,99.90
2023-02-16T19:16:07.793Z,99.90
2023-02-16T19:19:11.691Z,99.90
2023-02-16T19:22:15.464Z,99.90
2023-02-16T19:25:19.025Z,99.90
2023-02-16T19:28:22.438Z,99.90
2023-02-16T19:31:29.789Z,99.90
2023-02-16T19:34:34.982Z,99.90
2023-02-16T19:37:38.749Z,99.90
2023-02-16T19:40:42.598Z,99.90
2023-02-16T19:43:47.124Z,99.90
2023-02-16T19:46:52.599Z,99.90
2023-02-16T19:49:59.650Z,99.90
2023-02-16T19:53:03.053Z,99.90
2023-02-16T19:56:09.328Z,99.90
2023-02-16T19:59:13.090Z,99.90
2023-02-16T20:02:18.135Z,99.90
2023-02-16T20:05:21.876Z,99.90
2023-02-16T20:08:25.333Z,99.90
2023-02-16T20:11:30.653Z,99.90
2023-02-16T20:14:34.474Z,99.90
2023-02-16T20:17:39.358Z,99.90
2023-02-16T20:20:43.062Z,99.90
2023-02-16T20:23:48.543Z,99.90
2023-02-16T20:26:52.489Z,99.90
2023-02-16T20:29:58.962Z,99.90
2023-02-16T20:33:03.988Z,99.90
2023-02-16T20:36:07.683Z,99.90
2023-02-16T20:39:11.446Z,99.90
2023-02-16T20:42:14.905Z,99.90
2023-02-16T20:45:18.607Z,99.90
2023-02-16T20:48:24.162Z,99.90
2023-02-16T20:51:28.183Z,99.90
2023-02-16T20:54:31.687Z,99.90
2023-02-16T20:57:36.527Z,99.90
2023-02-16T21:00:39.966Z,99.90
2023-02-16T21:03:44.792Z,99.90
2023-02-16T21:06:48.228Z,99.90
2023-02-16T21:09:51.982Z,99.90
2023-02-16T21:12:55.325Z,99.90
2023-02-16T21:15:58.725Z,99.90
2023-02-16T21:19:07.261Z,99.90
2023-02-16T21:22:15.106Z,99.90
2023-02-16T21:25:18.733Z,99.90
2023-02-16T21:28:22.863Z,99.90
2023-02-16T21:31:27.523Z,99.90
2023-02-16T21:34:32.415Z,99.90
2023-02-16T21:37:38.606Z,99.90
2023-02-16T21:40:59.925Z,99.90
2023-02-16T21:44:06.936Z,99.90
2023-02-16T21:47:30.491Z,99.90
2023-02-16T21:50:40.323Z,99.90
2023-02-16T21:53:44.301Z,99.90
2023-02-16T21:56:52.136Z,99.90
2023-02-16T21:59:55.571Z,99.90
2023-02-16T22:03:00.702Z,99.90
2023-02-16T22:06:06.847Z,99.90
2023-02-16T22:09:12.570Z,99.90
2023-02-16T22:12:15.929Z,99.90
2023-02-16T22:15:19.593Z,99.90
2023-02-16T22:18:22.955Z,99.90
2023-02-16T22:21:29.014Z,99.90
2023-02-16T22:24:32.558Z,99.90
2023-02-16T22:27:36.020Z,99.90
2023-02-16T22:30:39.359Z,99.90
2023-02-16T22:33:43.117Z,99.90
2023-02-16T22:36:48.053Z,99.90
2023-02-16T22:39:51.988Z,99.90
2023-02-16T22:42:55.505Z,99.90
2023-02-16T22:45:58.885Z,99.90
2023-02-16T22:49:02.477Z,99.90
2023-02-16T22:52:08.727Z,99.90
2023-02-16T22:55:12.069Z,99.90
2023-02-16T22:58:15.609Z,99.90
2023-02-16T23:01:21.133Z,99.90
2023-02-16T23:04:24.846Z,99.90
2023-02-16T23:07:32.418Z,99.90
2023-02-16T23:10:36.677Z,99.90
2023-02-16T23:13:41.429Z,99.90
2023-02-16T23:16:46.330Z,99.90
2023-02-16T23:19:51.828Z,99.90
2023-02-16T23:22:56.471Z,99.90
2023-02-16T23:26:00.985Z,99.90
2023-02-16T23:29:07.180Z,99.90
2023-02-16T23:32:11.442Z,99.90
2023-02-16T23:35:14.809Z,99.90
2023-02-16T23:38:19.754Z,99.90
2023-02-16T23:41:23.021Z,99.90
2023-02-16T23:44:26.528Z,99.90
2023-02-16T23:47:29.926Z,99.90
2023-02-16T23:50:33.604Z,99.90
2023-02-16T23:53:38.304Z,99.90
2023-02-16T23:56:47.440Z,99.90
2023-02-16T23:59:50.591Z,99.90
